Time;durP1;ratioP1;P1;durP2;ratioP2;P2;SDS_P1;SDS_P2;PMS_P1;PMS_P2;Temp;Humidity;BMP_temperature;BMP_pressure;BME280_temperature;BME280_humidity;BME280_pressure;Samples;Min_cycle;Max_cycle;Signal;HPM_P1;HPM_P2
2023/03/06 00:01:47;;;;;;;15.27;6.63;;;4.70;99.90;;;;;;4955706;28;20030;-72
2023/03/06 00:04:14;;;;;;;11.57;6.90;;;4.70;99.90;;;;;;4973532;28;20054;-72
2023/03/06 00:06:40;;;;;;;16.47;7.27;;;4.60;99.90;;;;;;4956461;28;20027;-73
2023/03/06 00:09:06;;;;;;;14.73;7.07;;;4.60;99.90;;;;;;4955520;28;20031;-71
2023/03/06 00:11:31;;;;;;;15.97;6.43;;;4.60;99.90;;;;;;4956464;28;20062;-71
2023/03/06 00:13:57;;;;;;;13.30;6.20;;;4.70;99.90;;;;;;4973398;28;20428;-71
2023/03/06 00:16:23;;;;;;;14.10;6.17;;;4.60;99.90;;;;;;4956155;28;20041;-71
2023/03/06 00:18:49;;;;;;;13.90;6.87;;;4.70;99.90;;;;;;4955573;28;20106;-72
2023/03/06 00:21:15;;;;;;;14.10;6.70;;;4.60;99.90;;;;;;4973233;28;20459;-71
2023/03/06 00:23:40;;;;;;;15.83;6.73;;;4.70;99.90;;;;;;4973237;28;20034;-73
2023/03/06 00:26:07;;;;;;;14.83;7.17;;;4.60;99.90;;;;;;4956018;28;20472;-72
2023/03/06 00:28:34;;;;;;;11.77;6.50;;;4.70;99.90;;;;;;4956295;28;20023;-72
2023/03/06 00:31:00;;;;;;;13.80;6.63;;;4.60;99.90;;;;;;4955641;28;20039;-72
2023/03/06 00:33:25;;;;;;;13.63;7.00;;;4.70;99.90;;;;;;4973754;28;20026;-72
2023/03/06 00:35:51;;;;;;;11.67;6.57;;;4.70;99.90;;;;;;4955865;28;20042;-72
2023/03/06 00:38:17;;;;;;;13.73;6.50;;;4.60;99.90;;;;;;4956273;28;20066;-73
2023/03/06 00:40:42;;;;;;;12.87;6.73;;;4.60;99.90;;;;;;4956054;28;20125;-76
2023/03/06 00:43:08;;;;;;;13.63;6.80;;;4.60;99.90;;;;;;4973068;28;20023;-73
2023/03/06 00:45:33;;;;;;;14.30;6.63;;;4.60;99.90;;;;;;4972502;28;20026;-72
2023/03/06 00:47:59;;;;;;;14.50;6.40;;;4.60;99.90;;;;;;4955463;28;20031;-72
2023/03/06 00:50:25;;;;;;;15.00;7.23;;;4.60;99.90;;;;;;4973142;28;20027;-72
2023/03/06 00:52:50;;;;;;;15.17;7.17;;;4.60;99.90;;;;;;4972607;28;20034;-71
2023/03/06 00:55:16;;;;;;;16.47;7.07;;;4.60;99.90;;;;;;4959859;28;20090;-71
2023/03/06 00:57:41;;;;;;;15.63;7.07;;;4.60;99.90;;;;;;4972583;28;20038;-74
2023/03/06 01:00:09;;;;;;;15.50;7.40;;;4.60;99.90;;;;;;4972501;28;20027;-72
2023/03/06 01:02:34;;;;;;;20.87;8.57;;;4.60;99.90;;;;;;4971603;28;20054;-72
2023/03/06 01:05:00;;;;;;;16.67;7.17;;;4.60;99.90;;;;;;4970832;28;20038;-72
2023/03/06 01:07:32;;;;;;;16.03;7.10;;;4.50;99.90;;;;;;4972986;28;20054;-71
2023/03/06 01:09:57;;;;;;;14.68;7.25;;;4.50;99.90;;;;;;4972439;28;20126;-73
2023/03/06 01:12:23;;;;;;;14.43;7.30;;;4.50;99.90;;;;;;4971721;28;20118;-73
2023/03/06 01:14:49;;;;;;;16.13;7.47;;;4.50;99.90;;;;;;4971752;28;20054;-73
2023/03/06 01:17:14;;;;;;;13.80;7.13;;;4.50;99.90;;;;;;4973169;28;20030;-72
2023/03/06 01:19:40;;;;;;;16.07;7.40;;;4.50;99.90;;;;;;4973431;28;20037;-72
2023/03/06 01:22:06;;;;;;;14.30;7.30;;;4.50;99.90;;;;;;4974950;28;20073;-72
2023/03/06 01:24:31;;;;;;;13.77;7.27;;;4.50;99.90;;;;;;4975408;28;20026;-72
2023/03/06 01:26:57;;;;;;;15.43;7.30;;;4.50;99.90;;;;;;4976227;28;20075;-72
2023/03/06 01:29:25;;;;;;;15.77;7.23;;;4.50;99.90;;;;;;4976588;28;20030;-71
2023/03/06 01:31:50;;;;;;;17.87;6.77;;;4.50;99.90;;;;;;4976289;28;20022;-73
2023/03/06 01:34:16;;;;;;;14.63;7.57;;;4.50;99.90;;;;;;4975423;28;20035;-72
2023/03/06 01:36:42;;;;;;;15.07;7.20;;;4.50;99.90;;;;;;4975452;28;20137;-72
2023/03/06 01:39:08;;;;;;;15.90;7.30;;;4.50;99.90;;;;;;4976067;28;20399;-72
2023/03/06 01:41:33;;;;;;;11.03;6.70;;;4.40;99.90;;;;;;4994567;28;20161;-71
2023/03/06 01:43:59;;;;;;;16.67;7.40;;;4.50;99.90;;;;;;4994049;28;20388;-71
2023/03/06 01:46:30;;;;;;;16.00;7.60;;;4.50;99.90;;;;;;4983958;28;20117;-72
2023/03/06 01:49:11;;;;;;;17.53;7.07;;;4.50;99.90;;;;;;4981167;28;20125;-72
2023/03/06 01:51:49;;;;;;;16.40;7.00;;;4.40;99.90;;;;;;4994482;28;20337;-72
2023/03/06 01:54:36;;;;;;;18.27;7.90;;;4.40;99.90;;;;;;4986182;28;20113;-72
2023/03/06 01:57:27;;;;;;;14.77;7.57;;;4.40;99.90;;;;;;4990651;28;20038;-72
2023/03/06 01:59:59;;;;;;;14.90;7.20;;;4.40;99.90;;;;;;4995302;28;20046;-73
2023/03/06 02:02:25;;;;;;;14.80;6.80;;;4.40;99.90;;;;;;4995104;28;20056;-73
2023/03/06 02:04:50;;;;;;;15.47;7.30;;;4.40;99.90;;;;;;4993415;28;20069;-73
2023/03/06 02:07:19;;;;;;;17.27;7.77;;;4.40;99.90;;;;;;4995237;28;20066;-73
2023/03/06 02:09:45;;;;;;;15.33;7.57;;;4.40;99.90;;;;;;4988591;28;20053;-76
2023/03/06 02:12:15;;;;;;;16.70;7.87;;;4.40;99.90;;;;;;4975879;28;20067;-73
2023/03/06 02:14:42;;;;;;;16.33;7.67;;;4.40;99.90;;;;;;4986455;28;20034;-72
2023/03/06 02:17:11;;;;;;;17.13;8.03;;;4.40;99.90;;;;;;4976891;28;20037;-73
2023/03/06 02:19:45;;;;;;;15.77;7.70;;;4.40;99.90;;;;;;4991088;28;20023;-72
2023/03/06 02:22:11;;;;;;;17.10;8.17;;;4.40;99.90;;;;;;4982130;28;20400;-74
2023/03/06 02:24:44;;;;;;;17.47;8.60;;;4.40;99.90;;;;;;4981034;28;20034;-74
2023/03/06 02:27:13;;;;;;;18.17;8.13;;;4.40;99.90;;;;;;4973257;28;20038;-74
2023/03/06 02:29:39;;;;;;;15.13;7.97;;;4.40;99.90;;;;;;4978197;28;20033;-72
2023/03/06 02:32:05;;;;;;;17.93;8.07;;;4.40;99.90;;;;;;4984841;28;20035;-72
2023/03/06 02:34:48;;;;;;;15.53;7.87;;;4.40;99.90;;;;;;4975296;28;20034;-72
2023/03/06 02:37:13;;;;;;;23.77;11.60;;;4.40;99.90;;;;;;4983667;28;20031;-71
2023/03/06 02:39:43;;;;;;;17.53;8.37;;;4.50;99.90;;;;;;4994762;28;20037;-74
2023/03/06 02:42:09;;;;;;;18.27;8.97;;;4.40;99.90;;;;;;4992855;28;20033;-72
2023/03/06 02:44:35;;;;;;;18.17;8.43;;;4.40;99.90;;;;;;4994684;28;20026;-72
2023/03/06 02:47:01;;;;;;;20.60;9.03;;;4.30;99.90;;;;;;4994263;28;20475;-72
2023/03/06 02:49:26;;;;;;;18.10;8.33;;;4.30;99.90;;;;;;4974667;28;20027;-72
2023/03/06 02:51:52;;;;;;;15.70;8.07;;;4.30;99.90;;;;;;4980713;28;20455;-73
2023/03/06 02:54:17;;;;;;;18.20;8.63;;;4.30;99.90;;;;;;5009156;28;20026;-72
2023/03/06 02:56:46;;;;;;;17.53;8.47;;;4.30;99.90;;;;;;4999269;28;20049;-72
2023/03/06 02:59:12;;;;;;;16.33;8.27;;;4.30;99.90;;;;;;4976791;28;20121;-73
2023/03/06 03:01:37;;;;;;;20.93;8.73;;;4.30;99.90;;;;;;4975187;28;20488;-73
2023/03/06 03:04:04;;;;;;;17.87;9.10;;;4.30;99.90;;;;;;4972888;28;20037;-72
2023/03/06 03:06:29;;;;;;;19.27;8.30;;;4.30;99.90;;;;;;4978904;28;20081;-72
2023/03/06 03:08:56;;;;;;;19.10;8.53;;;4.20;99.90;;;;;;4994146;28;20159;-73
2023/03/06 03:11:21;;;;;;;20.47;8.93;;;4.30;99.90;;;;;;4994049;28;20519;-73
2023/03/06 03:13:47;;;;;;;19.17;8.57;;;4.20;99.90;;;;;;4994135;28;20026;-76
2023/03/06 03:16:14;;;;;;;18.30;8.20;;;4.20;99.90;;;;;;4983666;28;20034;-73
2023/03/06 03:18:40;;;;;;;19.83;8.77;;;4.30;99.90;;;;;;4986732;28;20026;-74
2023/03/06 03:21:11;;;;;;;18.37;8.13;;;4.30;99.90;;;;;;4991293;28;20391;-73
2023/03/06 03:23:37;;;;;;;18.00;8.40;;;4.30;99.90;;;;;;4978469;28;20053;-72
2023/03/06 03:26:17;;;;;;;18.13;8.53;;;4.30;99.90;;;;;;4985817;28;20092;-73
2023/03/06 03:28:43;;;;;;;21.17;8.33;;;4.30;99.90;;;;;;4974581;28;20034;-72
2023/03/06 03:31:11;;;;;;;16.30;8.37;;;4.40;99.90;;;;;;4973708;28;20209;-73
2023/03/06 03:33:36;;;;;;;22.10;8.47;;;4.30;99.90;;;;;;4973427;28;20034;-73
2023/03/06 03:36:03;;;;;;;18.23;9.07;;;4.30;99.90;;;;;;4971770;28;20049;-74
2023/03/06 03:38:30;;;;;;;16.97;8.33;;;4.30;99.90;;;;;;4973002;28;20066;-73
2023/03/06 03:40:55;;;;;;;17.33;8.17;;;4.30;99.90;;;;;;4972750;28;20031;-72
2023/03/06 03:43:21;;;;;;;21.83;8.90;;;4.30;99.90;;;;;;4990828;28;20049;-71
2023/03/06 03:45:46;;;;;;;17.53;8.33;;;4.30;99.90;;;;;;4988082;28;20042;-71
2023/03/06 03:48:12;;;;;;;19.50;8.67;;;4.30;99.90;;;;;;4972384;28;20066;-71
2023/03/06 03:50:38;;;;;;;17.90;7.60;;;4.30;99.90;;;;;;4974281;28;20038;-71
2023/03/06 03:53:04;;;;;;;19.80;8.20;;;4.30;99.90;;;;;;4972479;28;20031;-71
2023/03/06 03:55:30;;;;;;;19.70;8.03;;;4.30;99.90;;;;;;4972551;28;20081;-71
2023/03/06 03:57:55;;;;;;;18.73;9.10;;;4.20;99.90;;;;;;4977493;28;20026;-73
2023/03/06 04:00:21;;;;;;;16.13;7.83;;;4.20;99.90;;;;;;4992207;28;20038;-72
2023/03/06 04:02:47;;;;;;;19.30;9.30;;;4.20;99.90;;;;;;4992212;28;20026;-73
2023/03/06 04:05:14;;;;;;;26.30;9.13;;;4.20;99.90;;;;;;4975504;28;20438;-72
2023/03/06 04:07:41;;;;;;;19.63;8.87;;;4.20;99.90;;;;;;4993072;28;20031;-71
2023/03/06 04:10:08;;;;;;;24.43;9.53;;;4.20;99.90;;;;;;4991690;28;20022;-71
2023/03/06 04:12:34;;;;;;;23.07;9.60;;;4.20;99.90;;;;;;4992006;28;20772;-71
2023/03/06 04:15:00;;;;;;;21.33;9.90;;;4.20;99.90;;;;;;4991549;28;20391;-71
2023/03/06 04:17:26;;;;;;;21.77;9.77;;;4.20;99.90;;;;;;4991522;28;20036;-71
2023/03/06 04:19:52;;;;;;;22.00;9.67;;;4.20;99.90;;;;;;4993106;28;20034;-74
2023/03/06 04:22:18;;;;;;;25.30;10.20;;;4.20;99.90;;;;;;4991390;28;20022;-72
2023/03/06 04:24:43;;;;;;;21.43;10.03;;;4.20;99.90;;;;;;4990986;28;20027;-71
2023/03/06 04:27:09;;;;;;;20.93;10.27;;;4.20;99.90;;;;;;4974258;28;20027;-71
2023/03/06 04:29:35;;;;;;;23.87;10.00;;;4.20;99.90;;;;;;4988760;28;20031;-72
2023/03/06 04:32:01;;;;;;;21.63;9.77;;;4.10;99.90;;;;;;4978765;28;20030;-72
2023/03/06 04:34:26;;;;;;;23.73;11.07;;;4.20;99.90;;;;;;4991559;28;20034;-73
2023/03/06 04:36:52;;;;;;;22.57;11.20;;;4.10;99.90;;;;;;4984927;28;20042;-76
2023/03/06 04:39:17;;;;;;;27.00;10.17;;;4.10;99.90;;;;;;4974631;28;20030;-73
2023/03/06 04:41:43;;;;;;;27.60;11.87;;;4.10;99.90;;;;;;4971544;28;20081;-73
2023/03/06 04:44:09;;;;;;;25.57;11.23;;;4.10;99.90;;;;;;4979823;28;20022;-73
2023/03/06 04:46:34;;;;;;;22.63;11.30;;;4.10;99.90;;;;;;4980352;28;20365;-74
2023/03/06 04:49:00;;;;;;;21.20;10.60;;;4.10;99.90;;;;;;4986200;28;20057;-73
2023/03/06 04:51:26;;;;;;;28.33;11.23;;;4.10;99.90;;;;;;4973526;28;20038;-73
2023/03/06 04:53:51;;;;;;;24.63;10.87;;;4.00;99.90;;;;;;4973419;28;20035;-76
2023/03/06 04:56:17;;;;;;;23.63;11.57;;;4.00;99.90;;;;;;4975431;28;20643;-73
2023/03/06 04:58:43;;;;;;;25.93;10.63;;;4.00;99.90;;;;;;4977197;28;20046;-72
2023/03/06 05:01:09;;;;;;;26.03;11.57;;;4.00;99.90;;;;;;4992861;28;20027;-74
2023/03/06 05:03:34;;;;;;;25.37;10.60;;;4.00;99.90;;;;;;4996150;28;20045;-73
2023/03/06 05:06:00;;;;;;;23.87;10.87;;;4.00;99.90;;;;;;4994661;28;20034;-73
2023/03/06 05:08:26;;;;;;;23.70;11.33;;;4.00;99.90;;;;;;4984512;28;20085;-73
2023/03/06 05:10:57;;;;;;;22.20;10.50;;;4.00;99.90;;;;;;4976671;28;20035;-77
2023/03/06 05:13:24;;;;;;;18.25;8.15;;;4.00;99.90;;;;;;4991113;28;20387;-73
2023/03/06 05:15:49;;;;;;;21.63;9.63;;;4.00;99.90;;;;;;4982118;28;20081;-73
2023/03/06 05:18:15;;;;;;;22.60;11.00;;;4.00;99.90;;;;;;4993779;28;20384;-73
2023/03/06 05:20:41;;;;;;;26.23;10.97;;;4.00;99.90;;;;;;4982944;28;20030;-73
2023/03/06 05:23:07;;;;;;;24.23;10.13;;;3.90;99.90;;;;;;4989769;28;20026;-71
2023/03/06 05:25:32;;;;;;;20.87;9.90;;;3.90;99.90;;;;;;4979299;28;20026;-74
2023/03/06 05:27:58;;;;;;;24.60;11.30;;;4.00;99.90;;;;;;4988316;28;20474;-73
2023/03/06 05:30:24;;;;;;;23.00;11.23;;;3.90;99.90;;;;;;4985106;28;20038;-73
2023/03/06 05:32:50;;;;;;;27.40;10.87;;;3.90;99.90;;;;;;4982170;28;20053;-73
2023/03/06 05:35:18;;;;;;;25.33;11.07;;;3.90;99.90;;;;;;4974702;28;20530;-72
2023/03/06 05:37:44;;;;;;;24.30;10.37;;;3.90;99.90;;;;;;4981775;28;20027;-73
2023/03/06 05:40:10;;;;;;;21.90;10.37;;;3.90;99.90;;;;;;4982863;28;20384;-73
2023/03/06 05:42:36;;;;;;;22.90;10.50;;;3.90;99.90;;;;;;4983157;28;20043;-74
2023/03/06 05:45:03;;;;;;;22.53;10.30;;;3.90;99.90;;;;;;4984111;28;20038;-73
2023/03/06 05:47:29;;;;;;;26.37;10.63;;;3.90;99.90;;;;;;4980531;28;20027;-73
2023/03/06 05:49:54;;;;;;;27.07;11.37;;;3.90;99.90;;;;;;4974461;28;20077;-77
2023/03/06 05:52:20;;;;;;;27.53;10.80;;;3.90;99.90;;;;;;4974542;28;20031;-74
2023/03/06 05:54:52;;;;;;;20.50;10.17;;;3.90;99.90;;;;;;4974500;28;20055;-74
2023/03/06 05:57:19;;;;;;;23.47;10.00;;;3.90;99.90;;;;;;4958281;28;20026;-74
2023/03/06 05:59:45;;;;;;;24.33;10.97;;;3.90;99.90;;;;;;4958392;28;20026;-74
2023/03/06 06:02:10;;;;;;;26.87;11.33;;;3.90;99.90;;;;;;4975414;28;20027;-74
2023/03/06 06:04:36;;;;;;;22.97;11.17;;;3.90;99.90;;;;;;4958640;28;20085;-74
2023/03/06 06:07:02;;;;;;;25.70;11.60;;;3.90;99.90;;;;;;4957072;28;20035;-74
2023/03/06 06:09:29;;;;;;;21.40;10.80;;;3.90;99.90;;;;;;4958866;28;20093;-74
2023/03/06 06:12:00;;;;;;;22.57;10.37;;;3.90;99.90;;;;;;4976062;28;20034;-76
2023/03/06 06:14:27;;;;;;;22.43;11.50;;;3.90;99.90;;;;;;4975959;28;20019;-74
2023/03/06 06:16:53;;;;;;;26.37;11.43;;;3.90;99.90;;;;;;4975628;28;20404;-74
2023/03/06 06:19:19;;;;;;;23.93;11.07;;;3.90;99.90;;;;;;4957965;28;20038;-72
2023/03/06 06:21:49;;;;;;;22.83;10.03;;;3.90;99.90;;;;;;4958690;28;20027;-73
2023/03/06 06:24:16;;;;;;;27.63;11.90;;;3.90;99.90;;;;;;4957991;28;20027;-74
2023/03/06 06:26:42;;;;;;;23.83;10.80;;;3.90;99.90;;;;;;4958348;28;20038;-74
2023/03/06 06:29:08;;;;;;;23.47;10.40;;;3.90;99.90;;;;;;4957343;28;20033;-74
2023/03/06 06:31:37;;;;;;;22.80;10.07;;;3.90;99.90;;;;;;4975551;28;20069;-74
2023/03/06 06:34:04;;;;;;;24.47;10.33;;;3.90;99.90;;;;;;4957330;28;20054;-74
2023/03/06 06:36:30;;;;;;;23.03;10.20;;;3.90;99.90;;;;;;4975117;28;20039;-73
2023/03/06 06:38:56;;;;;;;23.03;9.80;;;3.90;99.90;;;;;;4957711;28;20037;-73
2023/03/06 06:41:21;;;;;;;19.83;9.83;;;4.00;99.90;;;;;;4957168;28;20065;-73
2023/03/06 06:43:47;;;;;;;21.90;10.37;;;3.90;99.90;;;;;;4957756;28;20057;-73
2023/03/06 06:46:12;;;;;;;23.60;10.87;;;3.90;99.90;;;;;;4957188;28;20476;-73
2023/03/06 06:48:38;;;;;;;24.50;10.60;;;4.00;99.90;;;;;;4957804;28;20033;-73
2023/03/06 06:51:04;;;;;;;26.43;10.93;;;3.90;99.90;;;;;;4957317;28;20118;-73
2023/03/06 06:53:30;;;;;;;27.60;10.73;;;3.90;99.90;;;;;;4958068;28;20077;-73
2023/03/06 06:55:58;;;;;;;29.50;11.13;;;3.90;99.90;;;;;;4987753;28;20395;-73
2023/03/06 06:58:24;;;;;;;23.97;10.73;;;4.00;99.90;;;;;;4993841;28;20480;-72
2023/03/06 07:00:49;;;;;;;22.70;10.77;;;3.90;99.90;;;;;;4976659;28;20026;-71
2023/03/06 07:03:16;;;;;;;25.23;10.60;;;3.90;99.90;;;;;;4993840;28;20033;-72
2023/03/06 07:05:41;;;;;;;24.37;10.63;;;4.00;99.90;;;;;;4976903;28;20030;-72
2023/03/06 07:08:07;;;;;;;23.53;10.13;;;4.00;99.90;;;;;;4976110;28;20034;-72
2023/03/06 07:10:34;;;;;;;23.30;10.13;;;4.00;99.90;;;;;;4993976;28;20482;-72
2023/03/06 07:13:00;;;;;;;21.07;10.23;;;4.10;99.90;;;;;;4976235;28;20034;-75
2023/03/06 07:15:28;;;;;;;22.27;9.97;;;4.10;99.90;;;;;;4993809;28;20042;-72
2023/03/06 07:17:54;;;;;;;23.13;10.47;;;4.10;99.90;;;;;;4993671;28;20022;-72
2023/03/06 07:20:20;;;;;;;21.37;10.03;;;4.20;99.90;;;;;;4993893;28;20038;-71
2023/03/06 07:22:46;;;;;;;24.60;9.90;;;4.20;99.90;;;;;;4994038;28;20030;-71
2023/03/06 07:25:11;;;;;;;25.73;10.47;;;4.20;99.90;;;;;;4976088;28;20121;-72
2023/03/06 07:27:37;;;;;;;22.03;9.63;;;4.20;99.90;;;;;;4993906;28;20188;-72
2023/03/06 07:30:03;;;;;;;20.97;9.50;;;4.20;99.90;;;;;;4976036;28;20542;-73
2023/03/06 07:32:29;;;;;;;19.37;9.20;;;4.20;99.90;;;;;;4993783;28;20033;-72
2023/03/06 07:34:55;;;;;;;20.00;9.03;;;4.30;99.90;;;;;;4993962;28;20042;-72
2023/03/06 07:37:20;;;;;;;22.17;8.73;;;4.20;99.90;;;;;;4975776;28;20626;-73
2023/03/06 07:39:46;;;;;;;20.80;9.40;;;4.20;99.90;;;;;;4993746;28;20034;-73
2023/03/06 07:42:13;;;;;;;24.33;9.77;;;4.30;99.90;;;;;;4975738;28;20088;-74
2023/03/06 07:44:39;;;;;;;21.53;8.87;;;4.30;99.90;;;;;;4976418;28;20461;-73
2023/03/06 07:47:05;;;;;;;26.43;10.27;;;4.30;99.90;;;;;;4993022;28;20037;-75
2023/03/06 07:49:31;;;;;;;20.93;9.27;;;4.30;99.90;;;;;;4993682;28;20022;-73
2023/03/06 07:51:57;;;;;;;26.33;10.33;;;4.30;99.90;;;;;;4976154;28;20022;-73
2023/03/06 07:54:23;;;;;;;25.57;10.50;;;4.30;99.90;;;;;;4991678;28;20042;-74
2023/03/06 07:56:50;;;;;;;21.37;9.33;;;4.30;99.90;;;;;;4975847;28;20034;-73
2023/03/06 07:59:15;;;;;;;19.83;9.17;;;4.30;99.90;;;;;;4975589;28;20023;-74
2023/03/06 08:01:41;;;;;;;22.03;9.80;;;4.30;99.90;;;;;;4976039;28;20030;-73
2023/03/06 08:04:07;;;;;;;19.73;9.50;;;4.30;99.90;;;;;;4975511;28;20041;-74
2023/03/06 08:06:32;;;;;;;25.57;9.57;;;4.30;99.90;;;;;;4975962;28;20390;-74
2023/03/06 08:08:58;;;;;;;21.50;9.40;;;4.20;99.90;;;;;;4993248;28;20547;-73
2023/03/06 08:11:26;;;;;;;23.57;8.87;;;4.20;99.90;;;;;;4975097;28;20027;-73
2023/03/06 08:13:52;;;;;;;18.00;8.83;;;4.20;99.90;;;;;;4975758;28;20030;-73
2023/03/06 08:16:23;;;;;;;19.93;9.73;;;4.20;99.90;;;;;;4974247;28;20049;-73
2023/03/06 08:18:49;;;;;;;19.63;9.57;;;4.20;99.90;;;;;;4975468;28;20415;-73
2023/03/06 08:21:18;;;;;;;21.43;9.37;;;4.30;99.90;;;;;;4975014;28;20022;-73
2023/03/06 08:23:44;;;;;;;22.53;10.47;;;4.30;99.90;;;;;;4993026;28;20038;-72
2023/03/06 08:26:13;;;;;;;19.30;8.73;;;4.20;99.90;;;;;;4992443;28;20041;-74
2023/03/06 08:28:39;;;;;;;20.63;9.70;;;4.20;99.90;;;;;;4975632;28;20415;-73
2023/03/06 08:31:30;;;;;;;20.73;9.37;;;4.30;99.90;;;;;;4991496;28;20097;-75
2023/03/06 08:33:59;;;;;;;20.73;9.40;;;4.30;99.90;;;;;;4960407;28;20491;-72
2023/03/06 08:36:25;;;;;;;21.90;9.30;;;4.30;99.90;;;;;;4967058;28;20034;-72
2023/03/06 08:38:51;;;;;;;22.23;9.03;;;4.30;99.90;;;;;;4987212;28;20022;-72
2023/03/06 08:41:16;;;;;;;20.10;8.50;;;4.30;99.90;;;;;;4982949;28;20037;-73
2023/03/06 08:43:42;;;;;;;20.17;9.10;;;4.30;99.90;;;;;;4969098;28;20472;-73
2023/03/06 08:46:09;;;;;;;19.03;8.60;;;4.30;99.90;;;;;;4983279;28;20034;-74
2023/03/06 08:48:35;;;;;;;21.07;8.80;;;4.30;99.90;;;;;;4977579;28;20027;-73
2023/03/06 08:51:01;;;;;;;21.40;8.63;;;4.30;99.90;;;;;;4977719;28;20088;-73
2023/03/06 08:53:27;;;;;;;18.43;8.40;;;4.30;99.90;;;;;;4959518;28;20058;-73
2023/03/06 08:55:52;;;;;;;17.50;8.70;;;4.30;99.90;;;;;;4959818;28;20054;-73
2023/03/06 08:58:18;;;;;;;18.73;7.97;;;4.30;99.90;;;;;;4959499;28;20491;-73
2023/03/06 09:00:44;;;;;;;18.00;8.20;;;4.30;99.90;;;;;;4964971;28;20030;-73
2023/03/06 09:03:09;;;;;;;19.00;7.83;;;4.30;99.90;;;;;;4978746;28;20072;-73
2023/03/06 09:05:35;;;;;;;16.60;8.17;;;4.30;99.90;;;;;;4996908;28;20085;-73
2023/03/06 09:08:01;;;;;;;18.80;8.63;;;4.40;99.90;;;;;;4996925;28;20034;-73
2023/03/06 09:10:26;;;;;;;17.90;7.93;;;4.40;99.90;;;;;;4992975;28;20030;-73
2023/03/06 09:12:52;;;;;;;15.97;7.43;;;4.40;99.90;;;;;;4969215;28;20467;-73
2023/03/06 09:15:20;;;;;;;17.07;7.63;;;4.40;99.90;;;;;;4969425;28;20057;-72
2023/03/06 09:17:46;;;;;;;16.63;8.10;;;4.40;99.90;;;;;;4959667;28;20031;-73
2023/03/06 09:20:13;;;;;;;18.97;8.70;;;4.40;99.90;;;;;;4959201;28;20023;-72
2023/03/06 09:22:41;;;;;;;19.47;8.40;;;4.40;99.90;;;;;;4977234;28;20460;-73
2023/03/06 09:25:08;;;;;;;17.60;7.87;;;4.50;99.90;;;;;;4959128;28;20472;-76
2023/03/06 09:27:34;;;;;;;17.20;8.10;;;4.50;99.90;;;;;;4959430;28;20078;-72
2023/03/06 09:30:00;;;;;;;19.00;7.83;;;4.50;99.90;;;;;;4959515;28;20061;-72
2023/03/06 09:32:26;;;;;;;18.57;8.30;;;4.60;99.90;;;;;;4966446;28;20061;-73
2023/03/06 09:34:51;;;;;;;16.93;7.90;;;4.60;99.90;;;;;;4969310;28;20125;-72
2023/03/06 09:37:17;;;;;;;18.53;8.73;;;4.60;99.90;;;;;;4978794;28;20027;-73
2023/03/06 09:39:43;;;;;;;17.73;8.13;;;4.60;99.90;;;;;;4975936;28;20023;-72
2023/03/06 09:42:18;;;;;;;16.73;7.73;;;4.60;99.90;;;;;;4965985;28;20030;-73
2023/03/06 09:44:55;;;;;;;19.30;8.03;;;4.70;99.90;;;;;;4984074;28;20026;-74
2023/03/06 09:48:12;;;;;;;17.10;8.63;;;4.70;99.90;;;;;;4959477;28;20027;-73
2023/03/06 09:50:45;;;;;;;19.57;8.53;;;4.80;99.90;;;;;;4948394;28;20446;-73
2023/03/06 09:53:18;;;;;;;15.77;7.57;;;4.80;99.90;;;;;;4966148;28;20085;-72
2023/03/06 09:56:13;;;;;;;14.77;7.87;;;4.70;99.90;;;;;;4975863;28;20042;-73
2023/03/06 09:58:47;;;;;;;18.83;8.03;;;4.70;99.90;;;;;;4978713;28;20087;-73
2023/03/06 10:01:19;;;;;;;17.07;8.03;;;4.80;99.90;;;;;;4993106;28;20493;-73
2023/03/06 10:04:10;;;;;;;17.30;8.00;;;4.80;99.90;;;;;;4971501;28;20023;-73
2023/03/06 10:06:49;;;;;;;18.77;8.23;;;4.80;99.90;;;;;;4958843;28;20035;-73
2023/03/06 10:09:38;;;;;;;16.63;7.87;;;4.90;99.90;;;;;;4980702;28;20023;-72
2023/03/06 10:12:27;;;;;;;20.13;8.60;;;4.90;99.90;;;;;;4969530;28;20031;-71
2023/03/06 10:15:33;;;;;;;16.93;8.27;;;4.90;99.90;;;;;;4971896;28;20034;-72
2023/03/06 10:18:00;;;;;;;16.87;7.87;;;5.00;99.90;;;;;;4995020;28;20023;-73
2023/03/06 10:20:44;;;;;;;17.40;7.83;;;5.00;99.90;;;;;;4986750;28;20030;-72
2023/03/06 10:23:38;;;;;;;19.00;7.97;;;5.10;99.90;;;;;;4978063;28;20084;-78
2023/03/06 10:26:12;;;;;;;18.07;8.47;;;5.20;99.90;;;;;;4969149;28;20498;-72
2023/03/06 10:29:02;;;;;;;19.33;8.70;;;5.40;99.90;;;;;;4969952;28;20026;-72
2023/03/06 10:31:28;;;;;;;18.10;7.67;;;5.60;99.90;;;;;;4960619;28;20022;-72
2023/03/06 10:34:09;;;;;;;17.30;7.37;;;5.60;99.90;;;;;;4987575;28;20023;-73
2023/03/06 10:36:35;;;;;;;12.00;5.85;;;5.60;99.90;;;;;;4986627;28;20039;-72
2023/03/06 10:39:08;;;;;;;19.53;8.17;;;5.70;99.90;;;;;;4978672;28;20078;-72
2023/03/06 10:41:37;;;;;;;15.37;7.70;;;5.80;99.90;;;;;;4980643;28;20026;-72
2023/03/06 10:44:02;;;;;;;15.20;7.73;;;5.80;99.90;;;;;;4986613;28;20137;-73
2023/03/06 10:46:30;;;;;;;15.67;7.57;;;5.80;99.90;;;;;;4984748;28;20105;-74
2023/03/06 10:48:58;;;;;;;18.40;8.43;;;5.80;99.90;;;;;;4979406;28;20038;-72
2023/03/06 10:51:25;;;;;;;15.87;7.30;;;5.80;99.90;;;;;;4972435;28;20467;-72
2023/03/06 10:54:16;;;;;;;18.20;7.50;;;5.90;99.90;;;;;;4980587;28;20026;-70
2023/03/06 10:56:44;;;;;;;14.80;7.57;;;5.80;99.90;;;;;;4980254;28;20050;-71
2023/03/06 10:59:18;;;;;;;17.50;7.17;;;5.80;99.90;;;;;;4990036;28;20109;-76
2023/03/06 11:01:49;;;;;;;18.07;7.10;;;5.90;99.90;;;;;;4979825;28;20372;-71
2023/03/06 11:04:28;;;;;;;14.07;7.47;;;6.00;99.90;;;;;;4983699;28;20027;-72
2023/03/06 11:07:13;;;;;;;18.00;7.00;;;5.90;99.90;;;;;;4988658;28;20026;-71
2023/03/06 11:09:39;;;;;;;15.37;7.17;;;5.90;99.90;;;;;;4972008;28;20030;-71
2023/03/06 11:12:34;;;;;;;17.80;7.53;;;5.90;99.90;;;;;;4993734;28;20026;-71
2023/03/06 11:15:06;;;;;;;14.83;6.93;;;5.90;99.90;;;;;;4970763;28;20054;-73
2023/03/06 11:17:34;;;;;;;13.45;6.85;;;6.00;99.90;;;;;;4977356;28;20076;-73
2023/03/06 11:20:43;;;;;;;11.60;6.37;;;6.10;99.90;;;;;;4968766;28;20466;-72
2023/03/06 11:23:39;;;;;;;13.80;6.50;;;6.20;99.90;;;;;;4972831;28;20026;-72
2023/03/06 11:26:31;;;;;;;13.37;6.90;;;6.20;99.90;;;;;;4964940;28;20087;-73
2023/03/06 11:29:05;;;;;;;15.05;7.15;;;6.20;99.90;;;;;;4961430;28;20405;-73
2023/03/06 11:31:35;;;;;;;13.40;6.67;;;6.20;99.90;;;;;;4975709;28;20115;-73
2023/03/06 11:34:03;;;;;;;13.57;6.57;;;6.20;99.90;;;;;;4975731;28;20502;-70
2023/03/06 11:36:48;;;;;;;13.60;6.43;;;6.30;99.90;;;;;;4981112;28;20148;-71
2023/03/06 11:39:29;;;;;;;15.67;6.57;;;6.40;99.90;;;;;;4989330;28;20053;-72
2023/03/06 11:42:23;;;;;;;13.80;6.63;;;6.40;99.90;;;;;;4980080;28;20495;-72
2023/03/06 11:44:49;;;;;;;13.53;6.77;;;6.40;99.90;;;;;;4979583;28;20073;-72
2023/03/06 11:47:20;;;;;;;13.43;6.90;;;6.30;99.90;;;;;;4989411;28;20058;-72
2023/03/06 11:50:18;;;;;;;14.40;6.35;;;6.30;99.90;;;;;;4962051;28;20033;-70
2023/03/06 11:52:59;;;;;;;14.20;6.77;;;6.20;99.90;;;;;;4938871;28;20053;-71
2023/03/06 11:55:47;;;;;;;15.10;6.67;;;6.10;99.90;;;;;;4976388;28;20050;-72
2023/03/06 11:58:50;;;;;;;12.93;6.83;;;6.20;99.90;;;;;;4981755;28;20030;-73
2023/03/06 12:01:26;;;;;;;12.53;6.53;;;6.30;99.90;;;;;;4976510;28;20026;-71
2023/03/06 12:04:14;;;;;;;14.07;6.53;;;6.30;99.90;;;;;;4979468;28;20027;-70
2023/03/06 12:07:08;;;;;;;19.00;7.00;;;6.30;99.90;;;;;;4984732;28;20097;-71
2023/03/06 12:09:33;;;;;;;14.53;6.73;;;6.40;99.90;;;;;;4975675;28;20023;-70
2023/03/06 12:12:28;;;;;;;13.63;6.63;;;6.30;99.90;;;;;;4992533;28;20451;-70
2023/03/06 12:15:09;;;;;;;11.47;5.70;;;6.30;99.90;;;;;;4976904;28;20034;-72
2023/03/06 12:18:01;;;;;;;11.33;5.97;;;6.30;99.90;;;;;;4976498;28;20026;-70
2023/03/06 12:20:58;;;;;;;13.65;6.90;;;6.40;99.90;;;;;;4979875;28;20033;-71
2023/03/06 12:23:35;;;;;;;13.97;6.07;;;6.50;99.90;;;;;;4989032;28;20035;-71
2023/03/06 12:26:07;;;;;;;9.60;5.33;;;6.40;99.90;;;;;;4980619;28;20038;-71
2023/03/06 12:28:54;;;;;;;11.30;5.77;;;6.50;99.90;;;;;;4980667;28;20043;-71
2023/03/06 12:31:32;;;;;;;11.53;5.70;;;6.40;99.90;;;;;;4987729;28;20549;-72
2023/03/06 12:34:04;;;;;;;13.57;6.37;;;6.40;99.90;;;;;;4978863;28;20411;-71
2023/03/06 12:36:49;;;;;;;13.52;6.90;;;6.40;99.90;;;;;;4979143;28;20426;-71
2023/03/06 12:39:27;;;;;;;18.13;7.33;;;6.40;99.90;;;;;;4989814;28;20030;-70
2023/03/06 12:42:04;;;;;;;14.53;6.67;;;6.40;99.90;;;;;;4986292;28;20023;-71
2023/03/06 12:44:55;;;;;;;14.53;6.80;;;6.40;99.90;;;;;;4983667;28;20481;-71
2023/03/06 12:47:24;;;;;;;10.40;5.43;;;6.40;99.90;;;;;;4976066;28;20053;-72
2023/03/06 12:49:57;;;;;;;10.27;5.63;;;6.30;99.90;;;;;;4985373;28;20074;-70
2023/03/06 12:52:28;;;;;;;9.70;5.37;;;6.30;99.90;;;;;;4981674;28;20038;-70
2023/03/06 12:54:57;;;;;;;12.00;5.33;;;6.30;99.90;;;;;;4976090;28;20511;-70
2023/03/06 12:57:24;;;;;;;10.10;5.47;;;6.30;99.90;;;;;;4986947;28;20137;-70
2023/03/06 12:59:51;;;;;;;9.67;5.40;;;6.30;99.90;;;;;;4978533;28;20488;-70